Página principal
METAR-TAF:

METAR-TAF

Aeroportos :

Port Heiden, Alasca, Estados Unidos

latitude: 56-57N, longitude: 158-38W, altura: 29 m

Observação actual do tempo

O boletim foi feito há 39 minutos, às 16:56 UTC
Vento 26 kt de su-sudeste com rajadas de 33 kt
Temperatura 12°C
Humidade 71%
Pressão 1013 hPa
Visibilidade: 16.1 km
Céu limpo

METAR: PAPH 251656Z AUTO 15026G33KT 10SM CLR 12/07 A2990 RMK AO2 PK WND 15033/1653 SLP124 T01170067 $

Hora: 09:35 (17:35 UTC)


TAF: em falta

Observações e previsões do tempo de mais de 4000 aeroportos (mensagens METAR e TAF).

As estações disponíveis são os pontos amarelos e vermelhos sobre o mapa.

Mova o rato sobre o mapa para ver o nome da estação.

Depois clique no ponto para visualizar as observações e previsões meteorológicas.

Para alterar o mapa : clique nos botões verdes com uma cruz preta para aumentar o zoom; no botão verde com uma pitada de zoom; ou nas setas verdes para mapas adjacentes.


METAR-TAF: